Flight Track Log - Related Links

Times and Time Zones

All times are in EDT time to prevent confusion due to time zone crossing. See the EGF5084 flight status page for this flight to view local times or setup timezone preferences in your user account.

Time Position Orientation Groundspeed Altitude Reporting Facility
EDT Latitude Longitude Course Direction KTS MPH feet Rate Location/Type
Mon 11:35:00 AM 43.7449 -91.0065 127° Southeast  Level Estimated
Mon 11:36:00 AM 43.7112 -90.9442 127° Southeast  Level Estimated
Mon 11:37:00 AM 43.6775 -90.8819 127° Southeast  Level Estimated
Mon 11:38:00 AM 43.6438 -90.8196 127° Southeast  Level Estimated
Mon 11:39:00 AM 43.6100 -90.7575 127° Southeast  Level Estimated
Mon 11:40:00 AM 43.5762 -90.6954 127° Southeast  Level Estimated
Mon 11:41:00 AM 43.5424 -90.6334 127° Southeast  Level Estimated
Mon 11:42:00 AM 43.5085 -90.5715 127° Southeast  Level Estimated
Mon 11:43:00 AM 43.4746 -90.5096 127° Southeast  Level Estimated
Mon 11:44:00 AM 43.4406 -90.4478 127° Southeast  Level Estimated
Mon 11:45:00 AM 43.4067 -90.3861 127° Southeast  Level Estimated
Mon 11:46:00 AM 43.3610 -90.3034 127° Southeast  Level Estimated
Mon 11:47:00 AM 43.3153 -90.2208 127° Southeast  Level Estimated
Mon 11:48:00 AM 43.2696 -90.1383 127° Southeast  Level Estimated
Mon 11:49:00 AM 43.2238 -90.0560 127° Southeast  Level Estimated
Mon 11:50:00 AM 43.1779 -89.9738 127° Southeast  Level Estimated
Mon 11:51:00 AM 43.1320 -89.8917 127° Southeast  Level Estimated
Mon 11:52:00 AM 43.0860 -89.8098 128° Southeast  Level Estimated
Mon 11:53:00 AM 43.0399 -89.7280 128° Southeast  Level Estimated
Mon 11:54:00 AM 42.9938 -89.6462 128° Southeast  Level Estimated
Mon 11:55:00 AM 42.9477 -89.5647 128° Southeast  Level Estimated
Mon 11:56:00 AM 42.9015 -89.4832 128° Southeast  Level Estimated
Mon 11:57:00 AM 42.8552 -89.4018 128° Southeast  Level Estimated
Mon 11:58:00 AM 42.8088 -89.3206 128° Southeast  Level Estimated
Mon 11:59:00 AM 42.7625 -89.2395 128° Southeast  Level Estimated
Mon 12:00:00 PM 42.7160 -89.1585 128° Southeast  Level Estimated
Mon 12:01:00 PM 42.6695 -89.0777 128° Southeast  Level Estimated
Mon 12:02:00 PM 42.6261 -89.0025 128° Southeast  Level Estimated
Mon 12:03:00 PM 42.5827 -88.9273 128° Southeast  Level Estimated
Mon 12:04:00 PM 42.5392 -88.8523 128° Southeast  Level Estimated
Mon 12:05:00 PM 42.4957 -88.7774 128° Southeast  Level Estimated
Mon 12:06:00 PM 42.4521 -88.7026 128° Southeast  Level Estimated
Mon 12:07:00 PM 42.4085 -88.6279 128° Southeast  Level Estimated
Mon 12:08:00 PM 42.3648 -88.5533 128° Southeast  Level Estimated
Mon 12:09:00 PM 42.3210 -88.4788 128° Southeast  Level Estimated
Mon 12:10:00 PM 42.2773 -88.4044 128° Southeast  Level Estimated
Mon 12:11:00 PM 42.2335 -88.3300 129° Southeast  Level Estimated
Mon 12:12:00 PM 42.1896 -88.2559 129° Southeast  Level Estimated

Login

Don't have an account? Register now (free) for customized features, flight alerts, and more!